createdAt,value
2022-09-11T00:08:02.777Z,5.03
2022-09-11T00:23:07.380Z,4.50
2022-09-11T00:38:16.643Z,4.67
2022-09-11T00:53:24.341Z,4.17
2022-09-11T01:08:28.743Z,4.77
2022-09-11T01:23:49.132Z,5.50
2022-09-11T01:38:57.220Z,5.67
2022-09-11T01:54:04.025Z,5.90
2022-09-11T02:09:12.239Z,4.60
2022-09-11T02:24:18.527Z,5.40
2022-09-11T02:39:41.772Z,5.83
2022-09-11T02:54:54.079Z,6.70
2022-09-11T03:09:59.602Z,5.67
2022-09-11T03:25:04.523Z,6.17
2022-09-11T03:40:10.488Z,6.27
2022-09-11T03:55:14.953Z,5.47
2022-09-11T04:10:20.410Z,5.60
2022-09-11T04:25:25.485Z,6.77
2022-09-11T04:40:29.912Z,6.23
2022-09-11T04:55:34.859Z,7.83
2022-09-11T05:10:39.872Z,9.43
2022-09-11T05:25:45.172Z,9.47
2022-09-11T05:40:51.641Z,8.40
2022-09-11T05:56:00.225Z,9.23
2022-09-11T06:11:08.179Z,8.03
2022-09-11T06:26:15.190Z,8.10
2022-09-11T06:41:22.144Z,9.63
2022-09-11T06:56:26.873Z,9.27
2022-09-11T07:11:33.314Z,11.13
2022-09-11T07:26:38.218Z,9.83
2022-09-11T07:41:54.948Z,10.03
2022-09-11T07:57:04.695Z,10.53
2022-09-11T08:12:11.957Z,10.90
2022-09-11T08:27:17.399Z,11.37
2022-09-11T08:42:23.291Z,13.73
2022-09-11T08:57:37.696Z,12.23
2022-09-11T09:12:52.743Z,14.40
2022-09-11T09:28:00.440Z,4.77
2022-09-11T09:43:26.193Z,5.57
2022-09-11T09:58:35.352Z,5.23
2022-09-11T10:13:42.313Z,6.20
2022-09-11T10:28:47.334Z,6.00
2022-09-11T10:43:58.720Z,3.93
2022-09-11T10:59:12.464Z,4.07
2022-09-11T11:14:45.014Z,2.40
2022-09-11T11:30:09.579Z,5.10
2022-09-11T11:45:26.166Z,1.17
2022-09-11T12:00:31.589Z,2.07
2022-09-11T12:15:36.693Z,2.43
2022-09-11T12:31:03.842Z,16.07
2022-09-11T12:46:13.931Z,1.43
2022-09-11T13:01:23.159Z,1.10
2022-09-11T13:16:28.857Z,1.90
2022-09-11T13:31:38.002Z,1.20
2022-09-11T13:46:52.984Z,1.60
2022-09-11T14:02:00.757Z,0.80
2022-09-11T14:17:05.241Z,0.90
2022-09-11T14:32:31.615Z,0.70
2022-09-11T14:47:36.465Z,0.60
2022-09-11T15:02:40.781Z,0.40
2022-09-11T15:17:46.130Z,0.50
2022-09-11T15:32:50.495Z,0.50
2022-09-11T15:47:54.809Z,2.57
2022-09-11T16:02:59.278Z,0.73
2022-09-11T16:18:07.721Z,0.57
2022-09-11T16:33:13.895Z,0.77
2022-09-11T16:48:18.246Z,0.30
2022-09-11T17:03:23.085Z,0.57
2022-09-11T17:18:27.577Z,0.73
2022-09-11T17:33:33.125Z,1.60
2022-09-11T17:48:37.508Z,0.63
2022-09-11T18:03:41.887Z,0.80
2022-09-11T18:18:46.191Z,2.47
2022-09-11T18:33:57.155Z,1.37
2022-09-11T18:49:01.936Z,1.87
2022-09-11T19:04:10.071Z,2.03
2022-09-11T19:19:14.592Z,2.13
2022-09-11T19:34:18.924Z,2.70
2022-09-11T19:49:24.013Z,2.50
2022-09-11T20:04:28.498Z,2.50
2022-09-11T20:19:33.071Z,2.63
